createdAt,value
2023-03-21T00:02:57.692Z,7.17
2023-03-21T00:06:03.564Z,8.40
2023-03-21T00:09:10.215Z,13.50
2023-03-21T00:12:15.223Z,10.93
2023-03-21T00:15:20.553Z,6.83
2023-03-21T00:18:25.816Z,5.97
2023-03-21T00:21:46.629Z,10.97
2023-03-21T00:25:00.678Z,7.13
2023-03-21T00:28:08.594Z,6.53
2023-03-21T00:31:12.130Z,5.73
2023-03-21T00:34:14.942Z,6.80
2023-03-21T00:37:27.876Z,7.67
2023-03-21T00:40:40.422Z,6.27
2023-03-21T00:43:43.572Z,7.80
2023-03-21T00:47:00.871Z,9.07
2023-03-21T00:50:10.398Z,8.67
2023-03-21T00:53:16.903Z,9.30
2023-03-21T00:56:20.960Z,5.90
2023-03-21T00:59:23.638Z,7.60
2023-03-21T01:02:26.752Z,8.33
2023-03-21T01:05:45.928Z,8.33
2023-03-21T01:08:54.699Z,10.23
2023-03-21T01:11:58.844Z,6.67
2023-03-21T01:15:01.979Z,7.73
2023-03-21T01:18:05.055Z,8.70
2023-03-21T01:21:10.779Z,7.50
2023-03-21T01:24:13.435Z,9.03
2023-03-21T01:27:18.035Z,9.57
2023-03-21T01:30:24.000Z,10.40
2023-03-21T01:33:30.298Z,9.70
2023-03-21T01:36:33.272Z,10.67
2023-03-21T01:39:36.056Z,11.30
2023-03-21T01:42:40.261Z,10.20
2023-03-21T01:46:27.313Z,11.33
2023-03-21T01:49:36.165Z,7.00
2023-03-21T01:52:41.609Z,5.60
2023-03-21T01:55:44.638Z,9.17
2023-03-21T01:58:50.536Z,5.40
2023-03-21T02:01:53.437Z,6.63
2023-03-21T02:05:04.509Z,5.47
2023-03-21T02:08:10.465Z,8.47
2023-03-21T02:11:13.307Z,10.10
2023-03-21T02:14:28.387Z,9.77
2023-03-21T02:17:37.580Z,11.13
2023-03-21T02:21:19.901Z,6.07
2023-03-21T02:25:01.488Z,7.63
2023-03-21T02:28:12.765Z,10.27
2023-03-21T02:31:37.434Z,7.57
2023-03-21T02:35:04.052Z,8.27
2023-03-21T02:38:11.860Z,8.33
2023-03-21T02:41:25.389Z,6.93
2023-03-21T02:44:43.542Z,6.67
2023-03-21T02:47:49.917Z,8.03
2023-03-21T02:50:55.151Z,7.47
2023-03-21T02:54:28.174Z,8.63
2023-03-21T02:57:33.770Z,7.80
2023-03-21T03:00:46.081Z,6.20
2023-03-21T03:03:51.891Z,5.67
2023-03-21T03:07:16.292Z,16.33
2023-03-21T03:10:33.721Z,5.27
2023-03-21T03:13:53.829Z,9.33
2023-03-21T03:17:05.120Z,6.33
2023-03-21T03:23:44.391Z,6.33
2023-03-21T03:26:52.453Z,4.70
2023-03-21T03:29:58.831Z,10.03
2023-03-21T03:33:03.261Z,6.50
2023-03-21T03:36:10.974Z,7.80
2023-03-21T03:39:17.236Z,12.93
2023-03-21T03:42:28.677Z,10.20
2023-03-21T03:45:36.047Z,9.93
2023-03-21T03:48:46.753Z,10.90
2023-03-21T03:51:56.552Z,8.40
2023-03-21T03:54:59.984Z,9.40
2023-03-21T03:58:06.418Z,8.00
2023-03-21T04:01:14.220Z,10.53
2023-03-21T04:04:17.705Z,7.50
2023-03-21T04:07:21.812Z,6.50
2023-03-21T04:10:24.924Z,9.03
2023-03-21T04:13:29.153Z,9.03
2023-03-21T04:16:35.554Z,9.37
2023-03-21T04:19:41.058Z,9.50
2023-03-21T04:22:43.947Z,10.60
2023-03-21T04:25:57.085Z,7.63
2023-03-21T04:29:02.199Z,6.67
2023-03-21T04:32:06.267Z,11.20
2023-03-21T04:35:10.731Z,7.57
2023-03-21T04:38:13.682Z,5.63
2023-03-21T04:41:16.392Z,6.83
2023-03-21T04:44:20.921Z,5.50
2023-03-21T04:47:24.062Z,9.33
2023-03-21T04:50:26.717Z,8.53
2023-03-21T04:53:29.429Z,7.07
2023-03-21T04:56:33.980Z,8.27
2023-03-21T04:59:41.388Z,7.43
2023-03-21T05:02:44.051Z,9.43
2023-03-21T05:05:48.339Z,6.67
2023-03-21T05:08:50.978Z,13.27
2023-03-21T05:11:53.736Z,7.80
2023-03-21T05:14:57.709Z,9.30
2023-03-21T05:18:11.549Z,12.37
2023-03-21T05:21:18.108Z,10.00
2023-03-21T05:24:25.265Z,10.07
2023-03-21T05:27:36.982Z,9.23
2023-03-21T05:30:41.506Z,13.17
2023-03-21T05:33:48.234Z,10.90
2023-03-21T05:36:51.004Z,14.00
2023-03-21T05:39:54.094Z,16.23
2023-03-21T05:42:56.893Z,8.97
2023-03-21T05:46:01.063Z,11.90
2023-03-21T05:49:03.697Z,11.07
2023-03-21T05:52:06.929Z,10.87
2023-03-21T05:55:24.846Z,9.27
2023-03-21T05:58:27.860Z,6.57
2023-03-21T06:01:37.445Z,12.87
2023-03-21T06:04:40.343Z,6.17
2023-03-21T06:07:47.394Z,6.33
2023-03-21T06:10:50.068Z,12.20
2023-03-21T06:13:52.973Z,7.40
2023-03-21T06:16:57.035Z,11.53
2023-03-21T06:20:01.118Z,14.87
2023-03-21T06:23:03.827Z,9.10
2023-03-21T06:26:07.059Z,11.00
2023-03-21T06:29:09.738Z,12.87
2023-03-21T06:32:14.372Z,10.37
2023-03-21T06:35:17.046Z,11.43
2023-03-21T06:38:19.842Z,14.50
2023-03-21T06:41:22.564Z,12.07
2023-03-21T06:44:25.659Z,11.40
2023-03-21T06:47:32.818Z,29.57
2023-03-21T06:50:35.925Z,26.27
2023-03-21T06:53:39.034Z,26.73
2023-03-21T06:56:42.216Z,25.03
2023-03-21T06:59:44.936Z,18.67
2023-03-21T07:02:51.148Z,22.47
2023-03-21T07:05:54.009Z,19.67
2023-03-21T07:08:57.010Z,16.10
2023-03-21T07:11:59.655Z,12.27
2023-03-21T07:15:03.028Z,8.70
2023-03-21T07:18:08.086Z,10.43
2023-03-21T07:21:11.333Z,12.93
2023-03-21T07:24:14.066Z,16.70
2023-03-21T07:27:17.520Z,13.27
2023-03-21T07:30:20.563Z,10.57
2023-03-21T07:33:26.038Z,13.13
2023-03-21T07:36:28.804Z,23.87
2023-03-21T07:39:34.541Z,10.40
2023-03-21T07:42:37.342Z,12.87
2023-03-21T07:45:40.865Z,12.07
2023-03-21T07:48:45.131Z,13.93
2023-03-21T07:51:47.977Z,12.43
2023-03-21T07:54:50.647Z,6.90
2023-03-21T07:57:53.999Z,9.13
2023-03-21T08:00:57.285Z,13.63
2023-03-21T08:04:01.653Z,16.03
2023-03-21T08:07:04.391Z,20.63
2023-03-21T08:10:08.270Z,12.53
2023-03-21T08:13:11.076Z,8.17
2023-03-21T08:16:13.856Z,10.40
2023-03-21T08:19:18.859Z,14.40
2023-03-21T08:22:21.690Z,7.87
2023-03-21T08:25:24.536Z,8.37
2023-03-21T08:28:33.370Z,4.27
2023-03-21T08:31:36.285Z,10.00
2023-03-21T08:34:42.864Z,16.70
2023-03-21T08:37:45.808Z,8.93
2023-03-21T08:40:48.464Z,11.70
2023-03-21T08:43:51.416Z,10.07
2023-03-21T08:46:54.306Z,8.93
2023-03-21T08:49:59.273Z,10.40
2023-03-21T08:53:02.000Z,12.53
2023-03-21T08:56:04.858Z,6.93
2023-03-21T08:59:10.057Z,7.83
2023-03-21T09:02:15.744Z,11.67
2023-03-21T09:05:20.399Z,9.47
2023-03-21T09:08:24.018Z,7.13
2023-03-21T09:11:26.808Z,9.17
2023-03-21T09:14:29.615Z,10.30
2023-03-21T09:17:33.132Z,5.97
2023-03-21T09:20:38.357Z,9.80
2023-03-21T09:23:41.503Z,12.17
2023-03-21T09:26:44.629Z,6.93
2023-03-21T09:29:48.375Z,7.43
2023-03-21T09:32:52.584Z,6.43
2023-03-21T09:35:57.876Z,12.27
2023-03-21T09:39:00.795Z,10.87
2023-03-21T09:42:19.865Z,6.23
2023-03-21T09:45:30.962Z,6.53
2023-03-21T09:48:50.564Z,6.93
2023-03-21T09:52:05.417Z,7.67
2023-03-21T09:55:20.064Z,9.57
2023-03-21T09:58:28.080Z,7.27
2023-03-21T10:01:34.548Z,12.50
2023-03-21T10:04:37.608Z,5.17
2023-03-21T10:07:47.788Z,8.10
2023-03-21T10:10:52.930Z,5.87
2023-03-21T10:14:00.472Z,7.80
2023-03-21T10:17:10.425Z,6.90
2023-03-21T10:20:17.499Z,6.43
2023-03-21T10:23:26.650Z,6.03
2023-03-21T10:26:31.008Z,4.93
2023-03-21T10:29:42.224Z,6.30
2023-03-21T10:32:45.038Z,5.87
2023-03-21T10:35:52.317Z,5.67
2023-03-21T10:39:01.702Z,3.23
2023-03-21T10:42:04.893Z,4.17
2023-03-21T10:45:16.492Z,6.83
2023-03-21T10:48:20.220Z,6.63
2023-03-21T10:51:28.140Z,6.73
2023-03-21T10:54:33.752Z,6.60
2023-03-21T10:57:38.044Z,3.23
2023-03-21T11:00:43.372Z,3.33
2023-03-21T11:03:48.260Z,8.83
2023-03-21T11:06:54.901Z,6.07
2023-03-21T11:10:00.476Z,3.90
2023-03-21T11:13:08.955Z,4.73
2023-03-21T11:16:13.681Z,5.17
2023-03-21T11:19:18.716Z,4.80
2023-03-21T11:22:23.652Z,5.83
2023-03-21T11:25:36.285Z,3.80
2023-03-21T11:28:41.557Z,2.43
2023-03-21T11:31:44.892Z,8.30
2023-03-21T11:34:49.605Z,8.87
2023-03-21T11:37:54.475Z,5.03
2023-03-21T11:41:02.094Z,4.30
2023-03-21T11:44:06.382Z,6.23
2023-03-21T11:47:11.463Z,5.97
2023-03-21T11:50:28.081Z,6.70
2023-03-21T11:53:39.625Z,3.33
2023-03-21T11:56:50.109Z,5.93
2023-03-21T12:00:02.169Z,3.63
2023-03-21T12:03:23.820Z,4.80
2023-03-21T12:06:31.274Z,3.97
2023-03-21T12:09:43.738Z,5.70
2023-03-21T12:12:56.492Z,5.50
2023-03-21T12:16:08.888Z,5.30
2023-03-21T12:19:43.057Z,3.83
2023-03-21T12:22:58.031Z,4.13
2023-03-21T12:26:11.345Z,2.83
2023-03-21T12:29:27.444Z,7.33
2023-03-21T12:32:45.452Z,5.30
2023-03-21T12:36:03.939Z,5.53
2023-03-21T12:39:21.069Z,4.40
2023-03-21T12:42:46.388Z,2.43
2023-03-21T12:45:54.795Z,5.97
2023-03-21T12:49:02.620Z,5.30
2023-03-21T12:52:09.972Z,4.57
2023-03-21T12:55:19.503Z,5.00
2023-03-21T12:58:28.307Z,3.27
2023-03-21T13:01:36.435Z,3.10
2023-03-21T13:04:46.825Z,4.53
2023-03-21T13:07:53.563Z,7.90
2023-03-21T13:10:59.519Z,8.10
2023-03-21T13:14:07.111Z,5.67
2023-03-21T13:17:20.512Z,5.20
2023-03-21T13:20:28.267Z,5.80
2023-03-21T13:23:36.799Z,5.63
2023-03-21T13:26:41.745Z,6.50
2023-03-21T13:29:49.786Z,6.70
2023-03-21T13:33:05.637Z,7.10
2023-03-21T13:36:10.080Z,6.10
2023-03-21T13:39:19.360Z,4.93
2023-03-21T13:42:31.756Z,4.27
2023-03-21T13:45:46.244Z,5.57
2023-03-21T13:49:02.191Z,4.00
2023-03-21T13:52:28.021Z,4.93
2023-03-21T13:55:36.692Z,9.40
2023-03-21T13:58:41.049Z,6.53
2023-03-21T14:01:59.957Z,6.30
2023-03-21T14:05:18.617Z,5.80
2023-03-21T14:08:36.494Z,4.13
2023-03-21T14:11:44.461Z,5.17
2023-03-21T14:14:54.103Z,5.93
2023-03-21T14:17:59.982Z,6.77
2023-03-21T14:21:07.104Z,12.77
2023-03-21T14:24:14.461Z,5.93
2023-03-21T14:27:17.655Z,4.73
2023-03-21T14:30:25.528Z,7.57
2023-03-21T14:33:32.391Z,5.23
2023-03-21T14:36:45.772Z,6.20
2023-03-21T14:40:00.393Z,7.80
2023-03-21T14:43:06.822Z,9.40
2023-03-21T14:46:14.386Z,6.50
2023-03-21T14:49:23.389Z,11.13
2023-03-21T14:52:31.217Z,5.60
2023-03-21T14:55:34.736Z,6.83
2023-03-21T14:58:40.288Z,4.03
2023-03-21T15:01:45.733Z,7.40
2023-03-21T15:04:51.563Z,10.77
2023-03-21T15:07:58.190Z,7.90
2023-03-21T15:11:07.511Z,6.73
2023-03-21T15:14:15.768Z,9.77
2023-03-21T15:17:19.027Z,13.03
2023-03-21T15:20:23.621Z,6.90
2023-03-21T15:23:31.473Z,6.73
2023-03-21T15:26:34.274Z,12.20
2023-03-21T15:29:37.842Z,13.37
2023-03-21T15:32:40.960Z,13.30
2023-03-21T15:35:47.029Z,10.13
2023-03-21T15:38:51.838Z,14.93
2023-03-21T15:41:59.965Z,19.57
2023-03-21T15:45:20.700Z,14.90
2023-03-21T15:48:27.079Z,13.63
2023-03-21T15:51:29.808Z,12.83
2023-03-21T15:54:37.083Z,11.20
2023-03-21T15:57:47.444Z,13.27
2023-03-21T16:00:55.120Z,15.30
2023-03-21T16:04:01.947Z,17.00
2023-03-21T16:07:15.565Z,36.93
2023-03-21T16:10:29.557Z,16.23
2023-03-21T16:13:32.216Z,14.80
2023-03-21T16:16:35.037Z,30.33
2023-03-21T16:19:37.943Z,41.10
2023-03-21T16:22:40.688Z,28.57
2023-03-21T16:25:45.800Z,27.07
2023-03-21T16:28:49.189Z,33.17
2023-03-21T16:31:51.843Z,25.10
2023-03-21T16:34:54.641Z,28.50
2023-03-21T16:37:57.369Z,22.33
2023-03-21T16:41:04.290Z,19.27
2023-03-21T16:44:07.288Z,23.43
2023-03-21T16:47:15.662Z,20.80
2023-03-21T16:50:26.768Z,18.20
2023-03-21T16:53:29.460Z,35.53
2023-03-21T16:56:39.725Z,16.00
2023-03-21T16:59:42.879Z,43.67
2023-03-21T17:02:48.722Z,38.27
2023-03-21T17:05:54.341Z,17.10
2023-03-21T17:08:58.549Z,14.67
2023-03-21T17:12:03.139Z,28.73
2023-03-21T17:15:06.782Z,31.63
2023-03-21T17:18:11.357Z,35.33
2023-03-21T17:21:15.932Z,37.00
2023-03-21T17:24:21.466Z,24.07
2023-03-21T17:27:25.870Z,14.17
2023-03-21T17:30:31.362Z,7.07
2023-03-21T17:33:35.464Z,9.33
2023-03-21T17:36:39.864Z,6.63
2023-03-21T17:39:43.005Z,16.23
2023-03-21T17:42:47.428Z,18.07
2023-03-21T17:45:51.011Z,13.87
2023-03-21T17:48:54.308Z,15.43
2023-03-21T17:51:56.998Z,11.90
2023-03-21T17:55:06.996Z,11.63
2023-03-21T17:58:12.926Z,10.50
2023-03-21T18:01:18.089Z,17.63
2023-03-21T18:04:21.009Z,17.83
2023-03-21T18:07:54.508Z,15.73
2023-03-21T18:10:50.767Z,14.37
2023-03-21T18:14:10.254Z,12.53
2023-03-21T18:17:19.301Z,13.03
2023-03-21T18:20:50.322Z,10.50
2023-03-21T18:23:52.470Z,42.57
2023-03-21T18:26:55.151Z,19.83
2023-03-21T18:30:31.897Z,22.27
2023-03-21T18:33:34.926Z,11.40
2023-03-21T18:36:38.081Z,15.13
2023-03-21T18:39:45.679Z,13.97
2023-03-21T18:43:41.451Z,15.00
2023-03-21T18:46:16.403Z,15.47
2023-03-21T18:52:42.129Z,20.43
2023-03-21T18:55:47.638Z,15.80
2023-03-21T18:58:51.040Z,17.07
2023-03-21T19:01:55.219Z,15.60
2023-03-21T19:04:58.780Z,15.33
2023-03-21T19:08:04.497Z,10.30
2023-03-21T19:11:08.692Z,8.53
2023-03-21T19:14:12.240Z,6.40
2023-03-21T19:18:11.343Z,9.67
2023-03-21T19:20:40.115Z,30.87
2023-03-21T19:24:20.736Z,25.10
2023-03-21T19:27:05.929Z,16.23
2023-03-21T19:30:15.064Z,17.67
2023-03-21T19:33:21.073Z,14.70
2023-03-21T19:36:23.892Z,19.97
2023-03-21T19:39:27.393Z,25.90
2023-03-21T19:42:30.967Z,24.67
2023-03-21T19:45:34.125Z,17.80
2023-03-21T19:48:43.511Z,17.50
2023-03-21T19:51:46.753Z,20.00
2023-03-21T19:54:49.673Z,28.67
2023-03-21T19:57:53.661Z,19.63
2023-03-21T20:00:56.390Z,53.37
2023-03-21T20:04:00.793Z,20.13
2023-03-21T20:07:03.445Z,20.60
2023-03-21T20:10:08.964Z,20.93
2023-03-21T20:13:11.671Z,17.27
2023-03-21T20:16:14.552Z,15.73
2023-03-21T20:19:20.216Z,14.93
2023-03-21T20:22:35.995Z,14.70
2023-03-21T20:25:47.379Z,29.93
2023-03-21T20:29:27.913Z,21.90
2023-03-21T20:32:19.988Z,25.97
2023-03-21T20:35:52.109Z,26.30
2023-03-21T20:38:47.133Z,21.17
2023-03-21T20:41:49.851Z,23.63
2023-03-21T20:44:59.091Z,27.03
2023-03-21T20:48:04.023Z,25.83
2023-03-21T20:52:07.501Z,31.37
2023-03-21T20:54:34.818Z,19.77
2023-03-21T20:57:40.742Z,18.73
2023-03-21T21:00:44.845Z,17.40
2023-03-21T21:03:49.839Z,33.13
2023-03-21T21:06:53.884Z,30.43
2023-03-21T21:09:57.198Z,23.63
2023-03-21T21:12:59.873Z,20.40
2023-03-21T21:16:02.808Z,14.63
2023-03-21T21:19:11.157Z,19.50
2023-03-21T21:22:15.405Z,11.60
2023-03-21T21:25:18.869Z,11.63
2023-03-21T21:28:23.174Z,15.73
2023-03-21T21:31:27.193Z,14.03
2023-03-21T21:34:30.382Z,18.97
2023-03-21T21:37:37.542Z,23.23
2023-03-21T21:40:42.970Z,17.77
2023-03-21T21:43:45.936Z,16.97
2023-03-21T21:46:57.449Z,20.87
2023-03-21T21:50:03.302Z,17.17
2023-03-21T21:53:12.170Z,15.10
2023-03-21T21:56:15.227Z,86.93
2023-03-21T21:59:17.888Z,107.03
2023-03-21T22:02:23.709Z,89.53
2023-03-21T22:05:27.027Z,118.27
2023-03-21T22:08:31.104Z,124.43
2023-03-21T22:11:33.841Z,257.07
2023-03-21T22:14:40.916Z,146.43
2023-03-21T22:17:43.621Z,510.93
2023-03-21T22:20:46.643Z,482.47
2023-03-21T22:23:50.701Z,495.10
2023-03-21T22:26:57.834Z,361.83
2023-03-21T22:30:04.454Z,326.07
2023-03-21T22:33:09.959Z,193.17
2023-03-21T22:36:13.263Z,251.13
2023-03-21T22:39:17.766Z,283.40
2023-03-21T22:42:20.644Z,274.90
2023-03-21T22:45:23.398Z,228.43
2023-03-21T22:48:34.786Z,253.13
2023-03-21T22:51:37.455Z,285.27
2023-03-21T22:54:41.588Z,203.77
2023-03-21T22:57:44.270Z,152.73
2023-03-21T23:00:47.284Z,131.97
2023-03-21T23:03:50.004Z,142.70
2023-03-21T23:06:52.870Z,101.37
2023-03-21T23:09:57.682Z,192.30
2023-03-21T23:13:00.404Z,86.87
2023-03-21T23:16:06.826Z,97.37
2023-03-21T23:19:10.449Z,100.13
2023-03-21T23:22:13.139Z,104.90
2023-03-21T23:25:20.363Z,92.90
2023-03-21T23:28:23.170Z,100.13
2023-03-21T23:31:27.885Z,90.43
2023-03-21T23:34:31.585Z,111.40
2023-03-21T23:37:34.336Z,64.73
2023-03-21T23:40:41.189Z,81.37
2023-03-21T23:43:44.472Z,85.10
2023-03-21T23:46:53.348Z,72.83
2023-03-21T23:49:56.014Z,91.27
2023-03-21T23:53:05.986Z,60.17
2023-03-21T23:56:14.342Z,89.70
2023-03-21T23:59:17.033Z,89.67
